createdAt,value
2019-01-18T00:01:34.839Z,99490.08
2019-01-18T00:03:09.652Z,99489.70
2019-01-18T00:04:44.440Z,99486.41
2019-01-18T00:06:19.292Z,99500.52
2019-01-18T00:07:54.078Z,99497.66
2019-01-18T00:09:28.854Z,99495.50
2019-01-18T00:11:03.713Z,99493.12
2019-01-18T00:12:38.770Z,99504.47
2019-01-18T00:14:14.023Z,99502.03
2019-01-18T00:15:48.856Z,99511.73
2019-01-18T00:17:23.643Z,99511.08
2019-01-18T00:18:58.781Z,99509.73
2019-01-18T00:20:34.072Z,99506.83
2019-01-18T00:22:08.836Z,99514.44
2019-01-18T00:23:43.841Z,99521.27
2019-01-18T00:25:18.941Z,99522.00
2019-01-18T00:26:53.696Z,99528.22
2019-01-18T00:28:28.534Z,99532.22
2019-01-18T00:30:03.426Z,99528.16
2019-01-18T00:31:38.216Z,99533.69
2019-01-18T00:33:13.268Z,99535.49
2019-01-18T00:34:48.039Z,99530.66
2019-01-18T00:36:22.804Z,99544.82
2019-01-18T00:37:57.567Z,99536.08
2019-01-18T00:39:32.611Z,99538.27
2019-01-18T00:41:07.780Z,99542.63
2019-01-18T00:42:42.693Z,99531.80
2019-01-18T00:44:17.725Z,99537.65
2019-01-18T00:45:52.823Z,99549.34
2019-01-18T00:47:28.023Z,99541.88
2019-01-18T00:49:02.784Z,99542.61
2019-01-18T00:50:37.551Z,99544.34
2019-01-18T00:52:12.613Z,99544.70
2019-01-18T00:53:47.632Z,99553.81
2019-01-18T00:55:22.691Z,99549.75
2019-01-18T00:56:57.722Z,99551.96
2019-01-18T00:58:32.542Z,99548.16
2019-01-18T01:00:14.363Z,99553.23
2019-01-18T01:01:49.345Z,99557.24
2019-01-18T01:03:24.570Z,99557.80
2019-01-18T01:04:59.362Z,99553.77
2019-01-18T01:06:34.393Z,99558.00
2019-01-18T01:08:09.302Z,99563.08
2019-01-18T01:09:44.081Z,99572.18
2019-01-18T01:11:18.930Z,99567.73
2019-01-18T01:12:53.969Z,99566.89
2019-01-18T01:14:29.047Z,99570.14
2019-01-18T01:16:03.809Z,99571.72
2019-01-18T01:17:38.583Z,99573.09
2019-01-18T01:19:13.388Z,99572.40
2019-01-18T01:20:48.252Z,99582.67
2019-01-18T01:22:23.090Z,99582.05
2019-01-18T01:23:57.942Z,99594.19
2019-01-18T01:25:32.790Z,99588.20
2019-01-18T01:27:07.555Z,99578.56
2019-01-18T01:28:42.353Z,99595.03
2019-01-18T01:30:23.969Z,99598.15
2019-01-18T01:31:58.815Z,99600.30
2019-01-18T01:33:33.602Z,99600.11
2019-01-18T01:35:08.904Z,99604.73
2019-01-18T01:36:43.752Z,99604.52
2019-01-18T01:38:18.837Z,99603.14
2019-01-18T01:39:53.927Z,99612.11
2019-01-18T01:41:28.717Z,99607.79
2019-01-18T01:43:03.587Z,99612.14
2019-01-18T01:44:38.607Z,99613.25
2019-01-18T01:46:13.628Z,99620.40
2019-01-18T01:47:48.665Z,99623.55
2019-01-18T01:49:23.724Z,99627.20
2019-01-18T01:50:58.589Z,99620.57
2019-01-18T01:52:33.421Z,99633.72
2019-01-18T01:54:08.493Z,99624.22
2019-01-18T01:55:43.252Z,99632.14
2019-01-18T01:57:18.272Z,99631.66
2019-01-18T01:58:53.113Z,99638.44
2019-01-18T02:00:29.953Z,99639.25
2019-01-18T02:02:05.122Z,99635.87
2019-01-18T02:03:39.886Z,99642.39
2019-01-18T02:05:15.182Z,99646.61
2019-01-18T02:06:50.196Z,99641.98
2019-01-18T02:08:24.975Z,99645.58
2019-01-18T02:10:00.045Z,99643.65
2019-01-18T02:11:35.211Z,99644.37
2019-01-18T02:13:10.017Z,99646.36
2019-01-18T02:15:04.719Z,99647.61
2019-01-18T02:16:39.501Z,99646.28
2019-01-18T02:18:14.257Z,99647.12
2019-01-18T02:19:49.599Z,99652.77
2019-01-18T02:21:24.721Z,99653.08
2019-01-18T02:22:59.491Z,99648.95
2019-01-18T02:24:34.400Z,99657.89
2019-01-18T02:26:09.167Z,99662.64
2019-01-18T02:27:45.098Z,99661.66
2019-01-18T02:29:20.142Z,99664.56
2019-01-18T02:30:54.929Z,99675.49
2019-01-18T02:32:29.685Z,99670.22
2019-01-18T02:34:06.394Z,99672.89
2019-01-18T02:35:41.679Z,99675.28
2019-01-18T02:37:16.707Z,99676.92
2019-01-18T02:38:51.476Z,99682.06
2019-01-18T02:40:26.409Z,99689.16
2019-01-18T02:42:01.498Z,99684.48
2019-01-18T02:43:36.515Z,99691.05
2019-01-18T02:45:13.925Z,99687.42
2019-01-18T02:46:49.043Z,99687.10
2019-01-18T02:48:24.327Z,99688.14
2019-01-18T02:49:59.592Z,99690.66
2019-01-18T02:51:34.344Z,99690.77
2019-01-18T02:53:09.349Z,99694.80
2019-01-18T02:54:44.437Z,99695.47
2019-01-18T02:56:19.524Z,99697.79
2019-01-18T02:57:54.519Z,99694.20
2019-01-18T02:59:29.567Z,99699.16
2019-01-18T03:01:04.441Z,99703.58
2019-01-18T03:02:39.643Z,99714.25
2019-01-18T03:04:16.314Z,99707.14
2019-01-18T03:05:51.336Z,99709.70
2019-01-18T03:07:26.380Z,99714.61
2019-01-18T03:09:01.192Z,99715.92
2019-01-18T03:10:35.962Z,99719.25
2019-01-18T03:12:10.739Z,99715.27
2019-01-18T03:13:45.499Z,99720.28
2019-01-18T03:15:20.381Z,99722.30
2019-01-18T03:16:55.433Z,99721.66
2019-01-18T03:18:30.463Z,99726.27
2019-01-18T03:20:07.319Z,99713.55
2019-01-18T03:21:42.326Z,99718.05
2019-01-18T03:23:17.325Z,99726.19
2019-01-18T03:24:52.098Z,99729.19
2019-01-18T03:26:27.161Z,99732.03
2019-01-18T03:28:02.182Z,99733.86
2019-01-18T03:29:37.026Z,99731.40
2019-01-18T03:31:12.070Z,99737.73
2019-01-18T03:32:47.100Z,99735.19
2019-01-18T03:34:22.132Z,99729.88
2019-01-18T03:35:57.133Z,99728.39
2019-01-18T03:37:32.134Z,99729.80
2019-01-18T03:39:10.576Z,99719.58
2019-01-18T03:40:45.390Z,99734.07
2019-01-18T03:42:20.795Z,99731.44
2019-01-18T03:43:56.082Z,99737.39
2019-01-18T03:45:31.660Z,99731.08
2019-01-18T03:47:06.478Z,99738.73
2019-01-18T03:48:41.286Z,99742.89
2019-01-18T03:50:22.341Z,99734.55
2019-01-18T03:51:57.615Z,99734.59
2019-01-18T03:53:32.483Z,99744.61
2019-01-18T03:55:07.729Z,99747.52
2019-01-18T03:56:42.526Z,99748.39
2019-01-18T03:58:17.322Z,99755.41
2019-01-18T03:59:52.373Z,99753.50
2019-01-18T04:01:27.270Z,99756.45
2019-01-18T04:03:02.123Z,99751.47
2019-01-18T04:04:37.173Z,99761.59
2019-01-18T04:06:12.075Z,99759.64
2019-01-18T04:07:47.060Z,99768.48
2019-01-18T04:09:22.091Z,99772.55
2019-01-18T04:10:56.869Z,99776.28
2019-01-18T04:12:31.662Z,99778.58
2019-01-18T04:14:06.659Z,99778.73
2019-01-18T04:15:41.697Z,99780.02
2019-01-18T04:17:16.500Z,99784.75
2019-01-18T04:18:51.277Z,99778.78
2019-01-18T04:20:26.319Z,99790.28
2019-01-18T04:22:01.061Z,99783.25
2019-01-18T04:23:35.840Z,99795.02
2019-01-18T04:25:14.586Z,99795.98
2019-01-18T04:26:49.698Z,99792.48
2019-01-18T04:28:24.717Z,99795.63
2019-01-18T04:29:59.481Z,99801.50
2019-01-18T04:31:34.528Z,99802.18
2019-01-18T04:33:09.312Z,99807.61
2019-01-18T04:34:44.084Z,99806.41
2019-01-18T04:36:19.132Z,99805.42
2019-01-18T04:37:54.229Z,99807.17
2019-01-18T04:39:29.004Z,99804.42
2019-01-18T04:41:03.793Z,99810.32
2019-01-18T04:42:38.562Z,99812.00
2019-01-18T04:44:13.566Z,99814.52
2019-01-18T04:45:48.346Z,99821.51
2019-01-18T04:47:23.130Z,99822.03
2019-01-18T04:48:57.890Z,99819.02
2019-01-18T04:50:32.913Z,99825.22
2019-01-18T04:52:07.712Z,99826.30
2019-01-18T04:53:42.513Z,99827.53
2019-01-18T04:55:17.510Z,99824.09
2019-01-18T04:56:52.571Z,99831.72
2019-01-18T04:58:27.649Z,99849.91
2019-01-18T05:00:02.422Z,99846.61
2019-01-18T05:01:37.482Z,99851.66
2019-01-18T05:03:12.247Z,99847.75
2019-01-18T05:04:47.038Z,99858.52
2019-01-18T05:06:22.060Z,99861.70
2019-01-18T05:07:56.922Z,99866.01
2019-01-18T05:09:31.951Z,99870.59
2019-01-18T05:11:07.004Z,99879.81
2019-01-18T05:12:42.273Z,99884.70
2019-01-18T05:14:17.421Z,99891.48
2019-01-18T05:15:52.190Z,99897.98
2019-01-18T05:17:26.976Z,99899.65
2019-01-18T05:19:02.035Z,99903.66
2019-01-18T05:20:37.077Z,99912.63
2019-01-18T05:22:12.113Z,99913.22
2019-01-18T05:23:47.368Z,99915.84
2019-01-18T05:25:22.147Z,99927.52
2019-01-18T05:26:56.930Z,99934.97
2019-01-18T05:28:31.695Z,99941.98
2019-01-18T05:30:12.303Z,99945.77
2019-01-18T05:31:47.337Z,99957.66
2019-01-18T05:33:22.258Z,99965.55
2019-01-18T05:34:57.556Z,99970.43
2019-01-18T05:36:32.594Z,99972.66
2019-01-18T05:38:07.552Z,99985.19
2019-01-18T05:39:42.578Z,99991.80
2019-01-18T05:41:17.386Z,99982.63
2019-01-18T05:42:52.225Z,99993.86
2019-01-18T05:44:27.286Z,99997.17
2019-01-18T05:46:02.055Z,100001.93
2019-01-18T05:47:37.102Z,100012.65
2019-01-18T05:49:11.962Z,100018.48
2019-01-18T05:50:46.754Z,100020.05
2019-01-18T05:52:21.567Z,100029.81
2019-01-18T05:53:56.595Z,100035.93
2019-01-18T05:55:31.371Z,100033.92
2019-01-18T05:57:06.147Z,100043.87
2019-01-18T05:58:40.946Z,100053.36
2019-01-18T06:00:32.055Z,100051.58
2019-01-18T06:02:07.576Z,100061.37
2019-01-18T06:03:42.448Z,100061.79
2019-01-18T06:05:18.190Z,100075.19
2019-01-18T06:06:53.249Z,100074.26
2019-01-18T06:08:28.314Z,100081.23
2019-01-18T06:10:03.185Z,100078.91
2019-01-18T06:11:38.229Z,100089.98
2019-01-18T06:13:13.319Z,100091.89
2019-01-18T06:14:48.114Z,100093.03
2019-01-18T06:16:23.650Z,100099.03
2019-01-18T06:17:58.552Z,100098.89
2019-01-18T06:19:33.564Z,100101.63
2019-01-18T06:21:08.401Z,100104.16
2019-01-18T06:22:43.710Z,100108.90
2019-01-18T06:24:18.486Z,100112.46
2019-01-18T06:25:53.354Z,100108.25
2019-01-18T06:27:28.154Z,100114.97
2019-01-18T06:29:03.297Z,100115.44
2019-01-18T06:30:38.504Z,100120.05
2019-01-18T06:32:13.269Z,100122.24
2019-01-18T06:33:48.337Z,100125.86
2019-01-18T06:35:23.686Z,100129.30
2019-01-18T06:36:58.852Z,100130.05
2019-01-18T06:38:33.905Z,100135.66
2019-01-18T06:40:12.469Z,100140.43
2019-01-18T06:41:50.601Z,100138.23
2019-01-18T06:43:25.769Z,100137.30
2019-01-18T06:45:00.568Z,100144.94
2019-01-18T06:46:35.359Z,100149.37
2019-01-18T06:48:12.181Z,100152.20
2019-01-18T06:49:46.946Z,100160.29
2019-01-18T06:51:21.750Z,100159.00
2019-01-18T06:52:56.512Z,100160.47
2019-01-18T06:54:31.573Z,100161.04
2019-01-18T06:56:06.910Z,100170.98
2019-01-18T06:57:41.726Z,100169.20
2019-01-18T06:59:16.765Z,100175.16
2019-01-18T07:00:51.807Z,100181.42
2019-01-18T07:02:26.827Z,100184.89
2019-01-18T07:04:01.606Z,100189.11
2019-01-18T07:05:36.974Z,100188.25
2019-01-18T07:07:11.795Z,100185.59
2019-01-18T07:08:46.808Z,100190.94
2019-01-18T07:10:21.827Z,100200.94
2019-01-18T07:11:56.626Z,100200.59
2019-01-18T07:13:31.511Z,100211.66
2019-01-18T07:15:08.607Z,100207.23
2019-01-18T07:16:43.639Z,100212.91
2019-01-18T07:18:18.418Z,100221.00
2019-01-18T07:19:53.465Z,100225.20
2019-01-18T07:21:28.231Z,100220.81
2019-01-18T07:23:03.543Z,100226.00
2019-01-18T07:24:38.320Z,100229.06
2019-01-18T07:26:13.437Z,100229.33
2019-01-18T07:27:48.557Z,100236.17
2019-01-18T07:29:23.343Z,100238.82
2019-01-18T07:30:58.967Z,100234.97
2019-01-18T07:32:33.786Z,100243.31
2019-01-18T07:34:08.642Z,100242.84
2019-01-18T07:35:43.916Z,100244.44
2019-01-18T07:37:18.718Z,100245.44
2019-01-18T07:38:53.496Z,100255.84
2019-01-18T07:40:28.339Z,100261.12
2019-01-18T07:42:03.122Z,100255.08
2019-01-18T07:43:37.932Z,100268.18
2019-01-18T07:45:20.028Z,100265.56
2019-01-18T07:46:54.825Z,100276.27
2019-01-18T07:48:30.538Z,100282.11
2019-01-18T07:50:06.217Z,100287.44
2019-01-18T07:51:41.314Z,100290.84
2019-01-18T07:53:16.480Z,100296.20
2019-01-18T07:54:51.536Z,100295.32
2019-01-18T07:56:26.560Z,100305.88
2019-01-18T07:58:01.354Z,100296.20
2019-01-18T07:59:36.177Z,100315.77
2019-01-18T08:01:10.953Z,100310.78
2019-01-18T08:02:45.933Z,100318.73
2019-01-18T08:04:21.228Z,100312.10
2019-01-18T08:05:56.366Z,100318.31
2019-01-18T08:07:31.219Z,100313.47
2019-01-18T08:09:09.184Z,100329.17
2019-01-18T08:10:43.974Z,100330.41
2019-01-18T08:12:18.747Z,100335.86
2019-01-18T08:13:53.514Z,100342.06
2019-01-18T08:15:30.034Z,100349.77
2019-01-18T08:17:04.861Z,100348.52
2019-01-18T08:18:39.699Z,100351.77
2019-01-18T08:20:17.309Z,100359.97
2019-01-18T08:21:52.326Z,100358.38
2019-01-18T08:23:27.405Z,100364.28
2019-01-18T08:25:02.214Z,100374.38
2019-01-18T08:26:37.251Z,100379.73
2019-01-18T08:28:12.019Z,100378.17
2019-01-18T08:29:47.114Z,100382.24
2019-01-18T08:31:21.895Z,100387.17
2019-01-18T08:32:56.738Z,100387.53
2019-01-18T08:34:31.514Z,100398.16
2019-01-18T08:36:06.659Z,100393.70
2019-01-18T08:37:41.682Z,100404.01
2019-01-18T08:39:16.458Z,100402.00
2019-01-18T08:40:51.543Z,100404.26
2019-01-18T08:42:26.413Z,100414.57
2019-01-18T08:44:01.181Z,100421.75
2019-01-18T08:45:52.536Z,100421.42
2019-01-18T08:47:27.587Z,100428.73
2019-01-18T08:49:02.383Z,100430.13
2019-01-18T08:50:37.554Z,100437.78
2019-01-18T08:52:12.340Z,100441.47
2019-01-18T08:53:47.153Z,100438.14
2019-01-18T08:55:21.922Z,100446.41
2019-01-18T08:56:56.707Z,100451.30
2019-01-18T08:58:31.731Z,100452.33
2019-01-18T09:00:09.424Z,100455.88
2019-01-18T09:01:44.179Z,100461.48
2019-01-18T09:03:18.972Z,100465.25
2019-01-18T09:04:53.987Z,100481.36
2019-01-18T09:06:28.813Z,100470.44
2019-01-18T09:08:03.719Z,100486.44
2019-01-18T09:09:38.992Z,100484.26
2019-01-18T09:11:13.779Z,100495.16
2019-01-18T09:12:48.793Z,100491.44
2019-01-18T09:14:23.963Z,100499.83
2019-01-18T09:15:58.742Z,100497.85
2019-01-18T09:17:33.545Z,100499.97
2019-01-18T09:19:08.386Z,100511.33
2019-01-18T09:20:43.336Z,100515.13
2019-01-18T09:22:18.365Z,100514.25
2019-01-18T09:23:53.167Z,100527.42
2019-01-18T09:25:28.016Z,100529.83
2019-01-18T09:27:02.803Z,100536.70
2019-01-18T09:28:38.137Z,100542.44
2019-01-18T09:30:25.611Z,100548.63
2019-01-18T09:32:00.841Z,100548.38
2019-01-18T09:33:35.890Z,100554.89
2019-01-18T09:35:12.955Z,100558.84
2019-01-18T09:36:47.974Z,100563.91
2019-01-18T09:38:23.051Z,100566.58
2019-01-18T09:39:57.823Z,100570.94
2019-01-18T09:41:32.645Z,100574.44
2019-01-18T09:43:07.575Z,100575.87
2019-01-18T09:44:42.364Z,100566.59
2019-01-18T09:46:17.169Z,100572.53
2019-01-18T09:47:52.510Z,100586.99
2019-01-18T09:49:27.361Z,100585.99
2019-01-18T09:51:02.250Z,100574.97
2019-01-18T09:52:37.029Z,100585.09
2019-01-18T09:54:12.155Z,100581.69
2019-01-18T09:55:47.188Z,100587.06
2019-01-18T09:57:22.087Z,100590.95
2019-01-18T09:58:57.401Z,100584.53
2019-01-18T10:00:35.711Z,100588.75
2019-01-18T10:02:10.615Z,100591.53
2019-01-18T10:03:45.426Z,100597.19
2019-01-18T10:05:21.051Z,100597.09
2019-01-18T10:06:56.262Z,100592.63
2019-01-18T10:08:31.058Z,100599.09
2019-01-18T10:10:09.220Z,100601.71
2019-01-18T10:11:44.275Z,100608.45
2019-01-18T10:13:19.058Z,100605.77
2019-01-18T10:14:53.921Z,100603.93
2019-01-18T10:16:28.709Z,100614.78
2019-01-18T10:18:03.655Z,100610.49
2019-01-18T10:19:38.442Z,100613.70
2019-01-18T10:21:13.253Z,100611.96
2019-01-18T10:22:48.827Z,100613.76
2019-01-18T10:24:24.235Z,100619.47
2019-01-18T10:25:59.611Z,100608.59
2019-01-18T10:27:34.382Z,100609.33
2019-01-18T10:29:09.158Z,100619.13
2019-01-18T10:30:44.437Z,100618.69
2019-01-18T10:32:19.679Z,100618.51
2019-01-18T10:33:54.471Z,100619.89
2019-01-18T10:35:29.469Z,100617.97
2019-01-18T10:37:04.861Z,100620.41
2019-01-18T10:38:39.995Z,100617.62
2019-01-18T10:40:15.467Z,100610.88
2019-01-18T10:41:50.250Z,100621.06
2019-01-18T10:43:25.287Z,100629.03
2019-01-18T10:45:00.087Z,100620.58
2019-01-18T10:46:34.934Z,100623.20
2019-01-18T10:48:09.760Z,100624.42
2019-01-18T10:49:44.890Z,100634.11
2019-01-18T10:51:20.017Z,100629.87
2019-01-18T10:52:54.920Z,100632.77
2019-01-18T10:54:29.702Z,100639.64
2019-01-18T10:56:04.567Z,100635.30
2019-01-18T10:57:39.720Z,100639.39
2019-01-18T10:59:14.790Z,100637.72
2019-01-18T11:00:49.553Z,100641.48
2019-01-18T11:02:24.327Z,100630.08
2019-01-18T11:03:59.434Z,100637.47
2019-01-18T11:05:34.420Z,100641.84
2019-01-18T11:07:09.579Z,100639.44
2019-01-18T11:08:44.405Z,100645.97
2019-01-18T11:10:19.537Z,100649.22
2019-01-18T11:11:54.307Z,100646.25
2019-01-18T11:13:29.062Z,100651.79
2019-01-18T11:15:04.496Z,100653.50
2019-01-18T11:16:39.306Z,100658.56
2019-01-18T11:18:14.362Z,100669.42
2019-01-18T11:19:49.155Z,100660.22
2019-01-18T11:21:24.738Z,100660.42
2019-01-18T11:23:00.349Z,100662.30
2019-01-18T11:24:35.639Z,100665.11
2019-01-18T11:26:10.482Z,100664.56
2019-01-18T11:27:45.268Z,100669.80
2019-01-18T11:29:20.343Z,100672.23
2019-01-18T11:30:55.510Z,100662.90
2019-01-18T11:32:30.287Z,100668.73
2019-01-18T11:34:05.314Z,100672.46
2019-01-18T11:35:40.280Z,100671.06
2019-01-18T11:37:15.168Z,100667.45
2019-01-18T11:38:49.959Z,100664.30
2019-01-18T11:40:25.086Z,100663.77
2019-01-18T11:41:59.910Z,100665.62
2019-01-18T11:43:34.693Z,100663.34
2019-01-18T11:45:09.976Z,100665.01
2019-01-18T11:46:44.750Z,100666.05
2019-01-18T11:48:19.530Z,100666.55
2019-01-18T11:49:54.834Z,100674.23
2019-01-18T11:51:29.626Z,100676.19
2019-01-18T11:53:04.551Z,100664.84
2019-01-18T11:54:39.326Z,100673.55
2019-01-18T11:56:14.113Z,100673.31
2019-01-18T11:57:49.126Z,100673.64
2019-01-18T11:59:23.903Z,100678.55
2019-01-18T12:00:58.912Z,100682.05
2019-01-18T12:02:34.003Z,100687.94
2019-01-18T12:04:08.798Z,100681.31
2019-01-18T12:05:44.052Z,100683.19
2019-01-18T12:07:19.152Z,100690.67
2019-01-18T12:08:54.227Z,100685.44
2019-01-18T12:10:31.940Z,100687.05
2019-01-18T12:12:06.850Z,100682.30
2019-01-18T12:13:41.626Z,100693.39
2019-01-18T12:15:16.685Z,100693.20
2019-01-18T12:16:52.243Z,100694.02
2019-01-18T12:18:27.581Z,100698.96
2019-01-18T12:20:02.432Z,100702.38
2019-01-18T12:21:37.339Z,100710.58
2019-01-18T12:23:12.463Z,100711.52
2019-01-18T12:24:47.270Z,100713.09
2019-01-18T12:26:22.420Z,100715.67
2019-01-18T12:27:57.745Z,100711.77
2019-01-18T12:29:32.539Z,100706.95
2019-01-18T12:31:07.315Z,100712.50
2019-01-18T12:32:42.092Z,100710.09
2019-01-18T12:34:17.343Z,100708.52
2019-01-18T12:35:52.194Z,100709.11
2019-01-18T12:37:26.982Z,100704.56
2019-01-18T12:39:01.906Z,100705.83
2019-01-18T12:40:36.704Z,100704.83
2019-01-18T12:42:11.703Z,100709.39
2019-01-18T12:43:46.482Z,100712.42
2019-01-18T12:45:23.359Z,100714.02
2019-01-18T12:46:58.494Z,100712.36
2019-01-18T12:48:33.552Z,100711.05
2019-01-18T12:50:14.236Z,100716.91
2019-01-18T12:51:49.038Z,100721.80
2019-01-18T12:53:24.147Z,100719.95
2019-01-18T12:54:59.267Z,100713.25
2019-01-18T12:56:34.079Z,100723.34
2019-01-18T12:58:09.005Z,100715.21
2019-01-18T12:59:44.548Z,100714.92
2019-01-18T13:01:19.402Z,100715.98
2019-01-18T13:02:54.912Z,100715.03
2019-01-18T13:04:29.762Z,100712.55
2019-01-18T13:06:04.708Z,100709.62
2019-01-18T13:07:39.574Z,100714.81
2019-01-18T13:09:14.716Z,100711.78
2019-01-18T13:10:49.949Z,100716.80
2019-01-18T13:12:25.077Z,100717.44
2019-01-18T13:14:00.216Z,100712.48
2019-01-18T13:16:24.502Z,100724.80
2019-01-18T13:17:59.628Z,100727.63
2019-01-18T13:19:34.487Z,100716.69
2019-01-18T13:21:09.270Z,100730.41
2019-01-18T13:22:44.427Z,100729.16
2019-01-18T13:24:19.633Z,100731.39
2019-01-18T13:25:54.794Z,100734.47
2019-01-18T13:27:29.895Z,100723.48
2019-01-18T13:29:04.862Z,100725.84
2019-01-18T13:30:39.901Z,100726.66
2019-01-18T13:32:14.716Z,100735.17
2019-01-18T13:33:49.666Z,100734.00
2019-01-18T13:35:24.852Z,100729.57
2019-01-18T13:36:59.670Z,100733.17
2019-01-18T13:38:34.793Z,100729.13
2019-01-18T13:40:17.522Z,100733.14
2019-01-18T13:41:52.633Z,100733.92
2019-01-18T13:43:27.667Z,100738.56
2019-01-18T13:45:02.940Z,100731.98
2019-01-18T13:46:37.805Z,100734.45
2019-01-18T13:48:12.598Z,100739.97
2019-01-18T13:49:47.759Z,100732.86
2019-01-18T13:51:22.995Z,100744.16
2019-01-18T13:52:57.790Z,100751.78
2019-01-18T13:54:32.567Z,100754.53
2019-01-18T13:56:07.357Z,100751.41
2019-01-18T13:57:42.167Z,100751.08
2019-01-18T13:59:17.313Z,100756.84
2019-01-18T14:00:52.399Z,100766.34
2019-01-18T14:02:27.174Z,100767.97
2019-01-18T14:04:01.966Z,100764.06
2019-01-18T14:05:59.028Z,100762.81
2019-01-18T14:07:56.110Z,100768.97
2019-01-18T14:09:31.294Z,100768.23
2019-01-18T14:11:12.623Z,100762.89
2019-01-18T14:12:47.388Z,100763.09
2019-01-18T14:14:22.745Z,100767.02
2019-01-18T14:15:57.533Z,100768.84
2019-01-18T14:17:32.592Z,100771.48
2019-01-18T14:19:08.035Z,100773.38
2019-01-18T14:20:42.832Z,100776.43
2019-01-18T14:22:17.630Z,100777.97
2019-01-18T14:23:52.907Z,100782.52
2019-01-18T14:25:27.713Z,100787.47
2019-01-18T14:27:03.701Z,100790.63
2019-01-18T14:28:38.917Z,100785.50
2019-01-18T14:30:18.394Z,100791.02
2019-01-18T14:31:53.174Z,100792.39
2019-01-18T14:33:28.036Z,100794.62
2019-01-18T14:35:03.182Z,100793.97
2019-01-18T14:36:38.033Z,100787.13
2019-01-18T14:38:12.891Z,100790.28
2019-01-18T14:39:47.708Z,100796.48
2019-01-18T14:41:23.310Z,100796.47
2019-01-18T14:42:58.219Z,100795.40
2019-01-18T14:44:33.598Z,100796.45
2019-01-18T14:46:08.376Z,100796.25
2019-01-18T14:47:43.753Z,100799.70
2019-01-18T14:49:18.532Z,100798.02
2019-01-18T14:50:53.432Z,100795.98
2019-01-18T14:52:36.455Z,100796.30
2019-01-18T14:54:14.623Z,100797.78
2019-01-18T14:55:49.873Z,100796.22
2019-01-18T14:57:24.743Z,100805.48
2019-01-18T14:58:59.598Z,100804.34
2019-01-18T15:00:36.453Z,100797.02
2019-01-18T15:02:11.724Z,100791.58
2019-01-18T15:03:47.003Z,100801.52
2019-01-18T15:05:22.054Z,100795.98
2019-01-18T15:06:56.923Z,100798.84
2019-01-18T15:08:32.144Z,100805.70
2019-01-18T15:10:10.287Z,100811.29
2019-01-18T15:11:45.158Z,100808.84
2019-01-18T15:13:20.413Z,100810.07
2019-01-18T15:14:55.540Z,100815.56
2019-01-18T15:16:30.513Z,100810.64
2019-01-18T15:18:05.582Z,100814.35
2019-01-18T15:19:40.359Z,100821.80
2019-01-18T15:21:15.185Z,100815.37
2019-01-18T15:22:50.118Z,100813.27
2019-01-18T15:24:24.912Z,100816.42
2019-01-18T15:25:59.694Z,100826.52
2019-01-18T15:27:34.506Z,100823.83
2019-01-18T15:29:09.974Z,100823.75
2019-01-18T15:30:44.985Z,100820.50
2019-01-18T15:32:20.137Z,100829.98
2019-01-18T15:33:56.373Z,100831.35
2019-01-18T15:35:34.653Z,100832.25
2019-01-18T15:37:09.429Z,100832.20
2019-01-18T15:38:44.547Z,100830.14
2019-01-18T15:40:23.155Z,100825.14
2019-01-18T15:41:58.397Z,100829.06
2019-01-18T15:43:33.525Z,100831.25
2019-01-18T15:45:10.082Z,100828.09
2019-01-18T15:46:44.876Z,100829.86
2019-01-18T15:48:19.989Z,100830.92
2019-01-18T15:49:54.999Z,100830.33
2019-01-18T15:51:29.791Z,100840.68
2019-01-18T15:53:05.786Z,100837.56
2019-01-18T15:54:40.901Z,100837.58
2019-01-18T15:56:15.698Z,100843.75
2019-01-18T15:57:50.816Z,100840.26
2019-01-18T15:59:25.639Z,100838.70
2019-01-18T16:01:00.774Z,100839.61
2019-01-18T16:02:35.564Z,100840.08
2019-01-18T16:04:10.723Z,100838.94
2019-01-18T16:05:45.606Z,100839.88
2019-01-18T16:07:20.784Z,100834.33
2019-01-18T16:08:55.855Z,100839.20
2019-01-18T16:10:30.654Z,100834.27
2019-01-18T16:12:05.842Z,100841.19
2019-01-18T16:13:40.669Z,100839.17
2019-01-18T16:15:16.742Z,100832.25
2019-01-18T16:17:02.310Z,100837.14
2019-01-18T16:18:37.239Z,100829.14
2019-01-18T16:20:16.292Z,100834.32
2019-01-18T16:21:51.087Z,100835.30
2019-01-18T16:23:25.868Z,100824.25
2019-01-18T16:25:06.740Z,100827.47
2019-01-18T16:26:41.870Z,100833.03
2019-01-18T16:28:16.807Z,100830.45
2019-01-18T16:29:51.607Z,100838.87
2019-01-18T16:31:27.396Z,100839.37
2019-01-18T16:33:02.346Z,100835.16
2019-01-18T16:34:37.614Z,100837.83
2019-01-18T16:36:12.664Z,100838.26
2019-01-18T16:37:49.169Z,100840.27
2019-01-18T16:39:24.275Z,100837.33
2019-01-18T16:40:59.113Z,100836.30
2019-01-18T16:42:33.953Z,100829.21
2019-01-18T16:44:08.761Z,100835.67
2019-01-18T16:45:44.138Z,100846.97
2019-01-18T16:47:19.189Z,100850.23
2019-01-18T16:48:54.297Z,100856.64
2019-01-18T16:50:30.074Z,100857.77
2019-01-18T16:52:05.017Z,100847.69
2019-01-18T16:53:40.092Z,100848.66
2019-01-18T16:55:15.643Z,100854.50
2019-01-18T16:56:50.482Z,100861.55
2019-01-18T16:58:25.264Z,100864.72
2019-01-18T17:00:00.216Z,100869.02
2019-01-18T17:01:35.283Z,100866.77
2019-01-18T17:03:10.242Z,100860.01
2019-01-18T17:04:45.642Z,100868.29
2019-01-18T17:06:20.741Z,100866.91
2019-01-18T17:07:55.726Z,100871.94
2019-01-18T17:09:30.612Z,100868.55
2019-01-18T17:11:06.318Z,100869.09
2019-01-18T17:12:41.097Z,100864.08
2019-01-18T17:14:15.983Z,100868.72
2019-01-18T17:15:50.873Z,100870.54
2019-01-18T17:17:26.204Z,100868.24
2019-01-18T17:19:01.276Z,100866.78
2019-01-18T17:20:40.057Z,100871.59
2019-01-18T17:22:14.912Z,100870.89
2019-01-18T17:23:49.762Z,100876.19
2019-01-18T17:25:24.892Z,100878.69
2019-01-18T17:27:00.151Z,100874.27
2019-01-18T17:28:35.265Z,100872.85
2019-01-18T17:30:17.187Z,100875.27
2019-01-18T17:31:52.260Z,100880.09
2019-01-18T17:33:28.261Z,100882.53
2019-01-18T17:35:04.299Z,100888.97
2019-01-18T17:37:08.465Z,100883.93
2019-01-18T17:39:19.572Z,100889.73
2019-01-18T17:41:28.127Z,100888.22
2019-01-18T17:43:52.444Z,100886.13
2019-01-18T17:46:29.857Z,100893.66
2019-01-18T17:48:54.277Z,100892.85
2019-01-18T17:51:01.335Z,100893.28
2019-01-18T17:53:08.315Z,100897.44
2019-01-18T17:55:54.835Z,100900.70
2019-01-18T17:58:25.951Z,100904.03
2019-01-18T18:01:02.209Z,100910.48
2019-01-18T18:03:21.293Z,100899.19
2019-01-18T18:05:41.754Z,100910.95
2019-01-18T18:07:51.749Z,100903.43
2019-01-18T18:09:45.512Z,100901.17
2019-01-18T18:11:54.191Z,100903.09
2019-01-18T18:14:38.969Z,100909.58
2019-01-18T18:16:47.508Z,100922.89
2019-01-18T18:18:53.028Z,100920.17
2019-01-18T18:21:17.526Z,100924.17
2019-01-18T18:23:48.710Z,100927.28
2019-01-18T18:26:00.725Z,100934.72
2019-01-18T18:28:34.347Z,100934.80
2019-01-18T18:30:52.030Z,100934.34
2019-01-18T18:33:08.947Z,100934.47
2019-01-18T18:35:00.353Z,100936.09
2019-01-18T18:37:34.369Z,100932.93
2019-01-18T18:40:02.421Z,100930.52